Time;durP1;ratioP1;P1;durP2;ratioP2;P2;SDS_P1;SDS_P2;PMS_P1;PMS_P2;Temp;Humidity;BMP_temperature;BMP_pressure;BME280_temperature;BME280_humidity;BME280_pressure;Samples;Min_cycle;Max_cycle;Signal;HPM_P1;HPM_P2
2022/04/17 00:00:52;;;;;;;;;;;;;;;-143.90;71.68;55250.22;2086712;28;19920;-62
2022/04/17 00:02:13;;;;;;;;;;;;;;;-143.90;71.54;55268.09;2086677;28;20291;-67
2022/04/17 00:03:34;;;;;;;;;;;;;;;-143.90;71.98;55281.97;2088381;28;20564;-66
2022/04/17 00:04:54;;;;;;;;;;;;;;;-143.90;72.35;55260.16;2089188;28;19921;-66
2022/04/17 00:06:15;;;;;;;;;;;;;;;-143.90;72.57;55220.44;2087843;28;19924;-65
2022/04/17 00:07:36;;;;;;;;;;;;;;;-143.90;72.84;55246.25;2087044;28;19994;-66
2022/04/17 00:08:57;;;;;;;;;;;;;;;-143.90;73.41;55248.22;2088001;28;20020;-65
2022/04/17 00:10:17;;;;;;;;;;;;;;;-143.90;73.27;55278.00;2087212;28;20319;-67
2022/04/17 00:11:38;;;;;;;;;;;;;;;-143.90;73.11;55202.56;2088677;28;19975;-65
2022/04/17 00:12:59;;;;;;;;;;;;;;;-143.90;73.63;55254.19;2088301;28;19927;-67
2022/04/17 00:14:21;;;;;;;;;;;;;;;-143.90;73.81;55254.19;2087705;28;20010;-67
2022/04/17 00:15:41;;;;;;;;;;;;;;;-143.90;73.65;55264.13;2086828;28;19931;-66
2022/04/17 00:17:03;;;;;;;;;;;;;;;-143.90;73.92;55266.09;2086933;28;19997;-66
2022/04/17 00:18:23;;;;;;;;;;;;;;;-143.90;72.89;55240.28;2085716;28;20047;-66
2022/04/17 00:19:44;;;;;;;;;;;;;;;-143.90;72.04;55260.16;2087913;28;20732;-66
2022/04/17 00:21:07;;;;;;;;;;;;;;;-143.90;72.35;55270.06;2088395;28;19931;-67
2022/04/17 00:22:28;;;;;;;;;;;;;;;-143.90;72.74;55218.44;2088231;28;20003;-65
2022/04/17 00:23:49;;;;;;;;;;;;;;;-143.90;72.52;55218.44;2088198;28;19938;-66
2022/04/17 00:25:10;;;;;;;;;;;;;;;-143.90;72.45;55250.22;2089183;28;19921;-66
2022/04/17 00:26:30;;;;;;;;;;;;;;;-143.90;72.59;55214.47;2088443;28;20438;-66
2022/04/17 00:27:51;;;;;;;;;;;;;;;-143.90;72.76;55281.97;2088884;28;19920;-66
2022/04/17 00:29:11;;;;;;;;;;;;;;;-143.90;71.76;55281.97;2087688;28;19932;-66
2022/04/17 00:30:32;;;;;;;;;;;;;;;-143.90;72.10;55266.09;2088134;28;20399;-66
2022/04/17 00:31:53;;;;;;;;;;;;;;;-143.90;72.25;55226.38;2088627;28;20398;-67
2022/04/17 00:33:14;;;;;;;;;;;;;;;-143.90;71.91;55258.16;2087944;28;19924;-67
2022/04/17 00:34:36;;;;;;;;;;;;;;;-143.90;71.70;55234.31;2087969;28;19920;-66
2022/04/17 00:35:57;;;;;;;;;;;;;;;-143.90;71.37;55230.34;2086899;28;19917;-66
2022/04/17 00:37:18;;;;;;;;;;;;;;;-143.90;71.02;55254.19;2086966;28;19920;-66
2022/04/17 00:38:38;;;;;;;;;;;;;;;-143.90;70.85;55274.03;2087957;28;19917;-67
2022/04/17 00:39:59;;;;;;;;;;;;;;;-143.90;70.19;55216.47;2088495;28;20499;-67
2022/04/17 00:41:20;;;;;;;;;;;;;;;-143.90;70.60;55281.97;2087053;28;19920;-65
2022/04/17 00:42:41;;;;;;;;;;;;;;;-143.90;69.76;55214.47;2088503;28;20002;-66
2022/04/17 00:44:02;;;;;;;;;;;;;;;-143.90;69.68;55234.31;2088804;28;20399;-65
2022/04/17 00:45:22;;;;;;;;;;;;;;;-143.90;69.99;55258.16;2088378;28;19916;-66
2022/04/17 00:46:43;;;;;;;;;;;;;;;-143.90;69.93;55270.06;2087986;28;19971;-66
2022/04/17 00:48:04;;;;;;;;;;;;;;;-143.90;70.38;55234.31;2087526;28;19917;-66
2022/04/17 00:49:24;;;;;;;;;;;;;;;-143.90;70.37;55244.25;2088408;28;19920;-66
2022/04/17 00:50:49;;;;;;;;;;;;;;;-143.90;70.40;55230.34;2087561;28;19920;-66
2022/04/17 00:52:09;;;;;;;;;;;;;;;-143.90;70.66;55254.19;2087664;28;19916;-67
2022/04/17 00:53:30;;;;;;;;;;;;;;;-143.90;70.69;55258.16;2087093;28;20392;-67
2022/04/17 00:54:51;;;;;;;;;;;;;;;-143.90;70.16;55242.28;2088563;28;19920;-67
2022/04/17 00:56:12;;;;;;;;;;;;;;;-143.90;69.83;55258.16;2088430;28;19931;-66
2022/04/17 00:57:33;;;;;;;;;;;;;;;-143.90;69.77;55278.00;2088489;28;19920;-67
2022/04/17 00:58:53;;;;;;;;;;;;;;;-143.90;69.39;55244.25;2088156;28;19920;-66
2022/04/17 01:00:14;;;;;;;;;;;;;;;-143.90;69.99;55252.19;2087874;28;19944;-67
2022/04/17 01:01:36;;;;;;;;;;;;;;;-143.90;70.35;55218.44;2087686;28;19925;-65
2022/04/17 01:02:56;;;;;;;;;;;;;;;-143.90;70.55;55238.31;2088426;28;20843;-67
2022/04/17 01:04:17;;;;;;;;;;;;;;;-143.90;70.92;55234.31;2088441;28;19920;-68
2022/04/17 01:05:42;;;;;;;;;;;;;;;-143.90;71.21;55238.31;2088207;28;19966;-66
2022/04/17 01:07:05;;;;;;;;;;;;;;;-143.90;72.54;55242.28;2088926;28;20307;-67
2022/04/17 01:08:26;;;;;;;;;;;;;;;-143.90;71.84;55210.50;2080113;28;19924;-66
2022/04/17 01:09:47;;;;;;;;;;;;;;;-143.90;71.98;55250.22;2084760;28;19920;-67
2022/04/17 01:11:08;;;;;;;;;;;;;;;-143.90;72.30;55246.25;2078961;28;19921;-67
2022/04/17 01:12:29;;;;;;;;;;;;;;;-143.90;72.94;55289.94;2084874;28;19923;-66
2022/04/17 01:13:51;;;;;;;;;;;;;;;-143.90;73.81;55266.09;2086754;28;19970;-66
2022/04/17 01:15:12;;;;;;;;;;;;;;;-143.90;74.68;55242.28;2087370;28;19923;-67
2022/04/17 01:16:33;;;;;;;;;;;;;;;-143.90;74.91;55222.41;2088458;28;20289;-67
2022/04/17 01:17:54;;;;;;;;;;;;;;;-143.90;75.13;55262.13;2088126;28;20020;-67
2022/04/17 01:19:15;;;;;;;;;;;;;;;-143.90;74.93;55246.25;2087293;28;19924;-67
2022/04/17 01:20:38;;;;;;;;;;;;;;;-143.90;75.89;55240.28;2087507;28;20512;-66
2022/04/17 01:21:59;;;;;;;;;;;;;;;-143.90;76.71;55242.28;2087477;28;19927;-66
2022/04/17 01:26:57;;;;;;;;;;;;;;;-143.90;78.68;55210.50;2088227;28;20384;-64
2022/04/17 01:28:18;;;;;;;;;;;;;;;-143.90;78.46;55258.16;2086993;28;20027;-66
2022/04/17 01:29:39;;;;;;;;;;;;;;;-143.90;78.78;55250.22;2089698;28;19921;-66
2022/04/17 01:31:01;;;;;;;;;;;;;;;-143.90;79.48;55254.19;2090631;28;20502;-66
2022/04/17 01:32:22;;;;;;;;;;;;;;;-143.90;80.39;55266.09;2090837;28;19924;-67
2022/04/17 01:33:43;;;;;;;;;;;;;;;-143.90;80.51;55254.19;2088422;28;19921;-65
2022/04/17 01:35:04;;;;;;;;;;;;;;;-143.90;81.80;55214.47;2089470;28;19923;-66
2022/04/17 01:36:24;;;;;;;;;;;;;;;-143.90;81.63;55262.13;2087761;28;20398;-66
2022/04/17 01:37:48;;;;;;;;;;;;;;;-143.90;81.92;55262.13;2089022;28;19999;-65
2022/04/17 01:39:09;;;;;;;;;;;;;;;-143.90;83.26;55266.09;2090655;28;19928;-67
2022/04/17 01:40:29;;;;;;;;;;;;;;;-143.90;84.54;55285.97;2091713;27;19952;-65
2022/04/17 01:41:50;;;;;;;;;;;;;;;-143.90;85.46;55262.13;2088486;28;19932;-65
2022/04/17 01:43:11;;;;;;;;;;;;;;;-143.90;85.62;55234.31;2088209;28;19921;-66
2022/04/17 01:44:32;;;;;;;;;;;;;;;-143.90;86.64;55301.84;2088326;28;19967;-66
2022/04/17 01:45:53;;;;;;;;;;;;;;;-143.90;86.19;55250.22;2088496;28;20395;-66
2022/04/17 01:47:14;;;;;;;;;;;;;;;-143.90;87.05;55242.28;2090376;28;19928;-67
2022/04/17 01:48:34;;;;;;;;;;;;;;;-143.90;87.29;55258.16;2090045;28;19916;-67
2022/04/17 01:49:55;;;;;;;;;;;;;;;-143.90;87.07;55210.50;2089174;28;19920;-66
2022/04/17 01:51:15;;;;;;;;;;;;;;;-143.90;87.42;55226.38;2088666;28;19940;-66
2022/04/17 01:52:36;;;;;;;;;;;;;;;-143.90;88.50;55242.28;2088611;28;19967;-67
2022/04/17 01:53:57;;;;;;;;;;;;;;;-143.90;88.89;55218.44;2088373;28;20364;-66
2022/04/17 01:55:17;;;;;;;;;;;;;;;-143.90;89.53;55254.19;2089846;28;19967;-66
2022/04/17 01:56:38;;;;;;;;;;;;;;;-143.90;90.80;55266.09;2090336;28;19917;-66
2022/04/17 01:57:59;;;;;;;;;;;;;;;-143.90;91.77;55258.16;2089685;28;19921;-65
2022/04/17 01:59:20;;;;;;;;;;;;;;;-143.90;92.52;55266.09;2089258;28;19917;-65
2022/04/17 02:00:41;;;;;;;;;;;;;;;-143.90;92.06;55262.13;2081377;28;20585;-65
2022/04/17 02:02:02;;;;;;;;;;;;;;;-143.90;92.48;55238.31;2087829;28;19932;-67
2022/04/17 02:03:22;;;;;;;;;;;;;;;-143.90;91.86;55234.31;2089169;28;19950;-65
2022/04/17 02:04:43;;;;;;;;;;;;;;;-143.90;91.31;55274.03;2089104;28;20376;-67
2022/04/17 02:06:03;;;;;;;;;;;;;;;-143.90;91.77;55230.34;2088694;28;19927;-66
2022/04/17 02:07:24;;;;;;;;;;;;;;;-143.90;92.01;55210.50;2089514;28;19923;-67
2022/04/17 02:08:45;;;;;;;;;;;;;;;-143.90;92.30;55238.31;2088186;28;20316;-67
2022/04/17 02:10:06;;;;;;;;;;;;;;;-143.90;92.17;55230.34;2087295;28;19917;-67
2022/04/17 02:11:27;;;;;;;;;;;;;;;-143.90;93.20;55287.94;2090158;28;19928;-66
2022/04/17 02:12:47;;;;;;;;;;;;;;;-143.90;93.67;55230.34;2087156;28;19920;-66
2022/04/17 02:14:09;;;;;;;;;;;;;;;-143.90;94.06;55240.28;2089604;28;19924;-67
2022/04/17 02:15:30;;;;;;;;;;;;;;;-143.90;95.01;55313.75;2089912;28;19917;-65
2022/04/17 02:16:51;;;;;;;;;;;;;;;-143.90;95.46;55278.00;2087938;28;19975;-66
2022/04/17 02:18:13;;;;;;;;;;;;;;;-143.90;97.23;55272.06;2087825;28;19917;-66
2022/04/17 02:19:34;;;;;;;;;;;;;;;-143.90;98.45;55278.00;2089164;28;19927;-66
2022/04/17 02:20:54;;;;;;;;;;;;;;;-143.90;98.83;55274.03;2089015;28;19916;-65
2022/04/17 02:22:15;;;;;;;;;;;;;;;-143.90;100.00;55270.06;2089946;28;19925;-66
2022/04/17 02:23:36;;;;;;;;;;;;;;;-143.90;100.00;55278.00;2090251;28;19927;-67
2022/04/17 02:24:56;;;;;;;;;;;;;;;-143.90;100.00;55246.25;2086982;28;19923;-65
2022/04/17 02:26:17;;;;;;;;;;;;;;;-143.90;100.00;55274.03;2081949;28;19932;-67
2022/04/17 02:27:38;;;;;;;;;;;;;;;-143.90;100.00;55218.44;2081887;28;20008;-64
2022/04/17 02:28:59;;;;;;;;;;;;;;;-143.90;100.00;55214.47;2080782;28;19928;-64
2022/04/17 02:30:20;;;;;;;;;;;;;;;-143.90;100.00;55289.94;2081423;28;20809;-64
2022/04/17 02:31:41;;;;;;;;;;;;;;;-143.90;100.00;55220.44;2082360;28;19920;-63
2022/04/17 02:33:02;;;;;;;;;;;;;;;-143.90;100.00;55285.97;2080857;28;19920;-64
2022/04/17 02:34:23;;;;;;;;;;;;;;;-143.90;100.00;55250.22;2080095;28;19921;-64
2022/04/17 02:35:44;;;;;;;;;;;;;;;-143.90;100.00;55268.09;2080698;28;19927;-64
2022/04/17 02:37:05;;;;;;;;;;;;;;;-143.90;100.00;55274.03;2082169;28;19932;-64
2022/04/17 02:38:25;;;;;;;;;;;;;;;-143.90;100.00;55262.13;2081173;28;20321;-64
2022/04/17 02:39:46;;;;;;;;;;;;;;;-143.90;100.00;55244.25;2079711;28;19921;-64
2022/04/17 02:41:07;;;;;;;;;;;;;;;-143.90;100.00;55266.09;2081843;28;20347;-64
2022/04/17 02:42:27;;;;;;;;;;;;;;;-143.90;100.00;55266.09;2080564;28;19925;-64
2022/04/17 02:43:48;;;;;;;;;;;;;;;-143.90;100.00;55240.28;2082023;28;19917;-64
2022/04/17 02:45:09;;;;;;;;;;;;;;;-143.90;100.00;55254.19;2081545;28;19921;-64
2022/04/17 02:48:09;;;;;;;;;;;;;;;-143.90;100.00;55240.28;2080623;28;19921;-64
2022/04/17 02:49:29;;;;;;;;;;;;;;;-143.90;100.00;55266.09;2081246;28;20008;-64
2022/04/17 02:50:50;;;;;;;;;;;;;;;-143.90;100.00;55274.03;2081430;28;19921;-63
2022/04/17 02:52:11;;;;;;;;;;;;;;;-143.90;100.00;55254.19;2080979;28;19921;-64
2022/04/17 02:53:32;;;;;;;;;;;;;;;-143.90;100.00;55285.97;2081393;28;19928;-62
2022/04/17 02:54:56;;;;;;;;;;;;;;;-143.90;100.00;55234.31;2080813;28;20107;-64
2022/04/17 02:56:17;;;;;;;;;;;;;;;-143.90;100.00;55242.28;2081864;28;19971;-64
2022/04/17 02:57:37;;;;;;;;;;;;;;;-143.90;100.00;55254.19;2081763;28;19927;-64
2022/04/17 02:58:58;;;;;;;;;;;;;;;-143.90;100.00;55266.09;2082204;28;19921;-64
2022/04/17 03:00:19;;;;;;;;;;;;;;;-143.90;100.00;55242.28;2081563;28;19917;-64
2022/04/17 03:06:37;;;;;;;;;;;;;;;-143.90;100.00;55258.16;2081257;28;19917;-64
2022/04/17 03:07:58;;;;;;;;;;;;;;;-143.90;100.00;55278.00;2080311;28;19928;-62
2022/04/17 03:09:19;;;;;;;;;;;;;;;-143.90;100.00;55234.31;2080917;28;19917;-64
2022/04/17 03:10:43;;;;;;;;;;;;;;;-143.90;100.00;55244.25;2081535;28;20427;-64
2022/04/17 03:12:04;;;;;;;;;;;;;;;-143.90;100.00;55252.19;2081841;28;20503;-62
2022/04/17 03:13:25;;;;;;;;;;;;;;;-143.90;100.00;55262.13;2081534;28;19921;-64
2022/04/17 03:14:46;;;;;;;;;;;;;;;-143.90;100.00;55274.03;2080354;28;19924;-63
2022/04/17 03:16:08;;;;;;;;;;;;;;;-143.90;100.00;55264.13;2081135;28;19921;-64
2022/04/17 03:17:29;;;;;;;;;;;;;;;-143.90;100.00;55301.84;2081206;28;19921;-64
2022/04/17 03:18:50;;;;;;;;;;;;;;;-143.90;100.00;55309.78;2072597;28;19921;-64
2022/04/17 03:20:11;;;;;;;;;;;;;;;-143.90;100.00;55268.09;2078102;28;20012;-64
2022/04/17 03:21:32;;;;;;;;;;;;;;;-143.90;100.00;55274.03;2081577;28;20438;-64
2022/04/17 03:22:53;;;;;;;;;;;;;;;-143.90;100.00;55256.16;2082171;28;20290;-63
2022/04/17 03:24:15;;;;;;;;;;;;;;;-143.90;100.00;55234.31;2080535;28;19921;-64
2022/04/17 03:25:36;;;;;;;;;;;;;;;-143.90;100.00;55266.09;2080413;28;19928;-64
2022/04/17 03:26:56;;;;;;;;;;;;;;;-143.90;100.00;55266.09;2080270;28;19973;-64
2022/04/17 03:28:17;;;;;;;;;;;;;;;-143.90;100.00;55264.13;2081504;28;20348;-64
2022/04/17 03:29:37;;;;;;;;;;;;;;;-143.90;100.00;55234.31;2081186;28;19920;-64
2022/04/17 03:30:58;;;;;;;;;;;;;;;-143.90;100.00;55270.06;2081162;28;19921;-63
2022/04/17 03:32:19;;;;;;;;;;;;;;;-143.90;100.00;55268.09;2081138;28;20917;-63
2022/04/17 03:33:40;;;;;;;;;;;;;;;-143.90;100.00;55262.13;2079413;28;19948;-63
2022/04/17 03:35:02;;;;;;;;;;;;;;;-143.90;100.00;55274.03;2080790;28;19974;-64
2022/04/17 03:36:22;;;;;;;;;;;;;;;-143.90;100.00;55266.09;2079366;28;20284;-63
2022/04/17 03:37:43;;;;;;;;;;;;;;;-143.90;100.00;55274.03;2081107;28;19928;-65
2022/04/17 03:39:04;;;;;;;;;;;;;;;-143.90;100.00;55246.25;2081141;28;19916;-64
2022/04/17 03:40:25;;;;;;;;;;;;;;;-143.90;100.00;55274.03;2080286;28;19921;-64
2022/04/17 03:41:46;;;;;;;;;;;;;;;-143.90;100.00;55250.22;2080307;28;19920;-64
2022/04/17 03:43:07;;;;;;;;;;;;;;;-143.90;100.00;55262.13;2080651;28;19921;-63
2022/04/17 03:44:28;;;;;;;;;;;;;;;-143.90;100.00;55264.13;2079992;28;19984;-63
2022/04/17 03:45:49;;;;;;;;;;;;;;;-143.90;100.00;55270.06;2080654;28;20005;-64
2022/04/17 03:47:09;;;;;;;;;;;;;;;-143.90;100.00;55256.16;2081047;28;20434;-63
2022/04/17 03:48:30;;;;;;;;;;;;;;;-143.90;100.00;55258.16;2081910;28;19925;-63
2022/04/17 03:49:51;;;;;;;;;;;;;;;-143.90;100.00;55258.16;2080476;28;19976;-64
2022/04/17 03:51:11;;;;;;;;;;;;;;;-143.90;100.00;55256.16;2080154;28;20400;-64
2022/04/17 03:52:58;;;;;;;;;;;;;;;-143.90;100.00;55281.97;2079359;28;20008;-64
2022/04/17 03:54:19;;;;;;;;;;;;;;;-143.90;100.00;55214.47;2081481;28;19924;-64
2022/04/17 03:55:40;;;;;;;;;;;;;;;-143.90;100.00;55256.16;2079735;28;19921;-64
2022/04/17 03:57:01;;;;;;;;;;;;;;;-143.90;100.00;55262.13;2072187;28;19984;-63
2022/04/17 03:58:22;;;;;;;;;;;;;;;-143.90;100.00;55246.25;2078565;28;19921;-64
2022/04/17 03:59:42;;;;;;;;;;;;;;;-143.90;100.00;55248.22;2080641;28;19927;-64
2022/04/17 04:01:03;;;;;;;;;;;;;;;-143.90;100.00;55244.25;2079194;28;19917;-63
2022/04/17 04:02:24;;;;;;;;;;;;;;;-143.90;100.00;55276.03;2079799;28;19929;-64
2022/04/17 04:03:46;;;;;;;;;;;;;;;-143.90;100.00;55236.31;2079425;28;20553;-64
2022/04/17 04:05:08;;;;;;;;;;;;;;;-143.90;100.00;55238.31;2081265;28;19920;-63
2022/04/17 04:06:28;;;;;;;;;;;;;;;-143.90;100.00;55234.31;2081278;28;19956;-63
2022/04/17 04:07:49;;;;;;;;;;;;;;;-143.90;100.00;55246.25;2079865;28;19928;-62
2022/04/17 04:09:10;;;;;;;;;;;;;;;-143.90;100.00;55200.56;2079821;28;19931;-64
2022/04/17 04:10:30;;;;;;;;;;;;;;;-143.90;100.00;55214.47;2079770;28;20491;-64
2022/04/17 04:11:51;;;;;;;;;;;;;;;-143.90;100.00;55317.72;2080106;28;20411;-63
2022/04/17 04:13:12;;;;;;;;;;;;;;;-143.90;100.00;55258.16;2082138;28;19979;-63
2022/04/17 04:14:32;;;;;;;;;;;;;;;-143.90;100.00;55287.94;2081183;28;19920;-63
2022/04/17 04:15:55;;;;;;;;;;;;;;;-143.90;100.00;55244.25;2080795;28;19921;-64
2022/04/17 04:17:15;;;;;;;;;;;;;;;-143.90;100.00;55283.97;2079874;28;20383;-64
2022/04/17 04:18:36;;;;;;;;;;;;;;;-143.90;100.00;55248.22;2081173;28;21409;-64
2022/04/17 04:20:00;;;;;;;;;;;;;;;-143.90;100.00;55254.19;2081365;28;19999;-63
2022/04/17 04:21:20;;;;;;;;;;;;;;;-143.90;100.00;55285.97;2080823;28;20091;-64
2022/04/17 04:22:41;;;;;;;;;;;;;;;-143.90;100.00;55285.97;2079300;28;19929;-63
2022/04/17 04:24:02;;;;;;;;;;;;;;;-143.90;100.00;55285.97;2079068;28;20055;-63
2022/04/17 04:25:22;;;;;;;;;;;;;;;-143.90;100.00;55274.03;2080520;28;19931;-64
2022/04/17 04:26:43;;;;;;;;;;;;;;;-143.90;100.00;55281.97;2087349;28;20027;-64
2022/04/17 04:29:43;;;;;;;;;;;;;;;-143.90;100.00;55256.16;2087959;28;19935;-63
2022/04/17 04:31:07;;;;;;;;;;;;;;;-143.90;100.00;55260.16;2088341;28;19924;-64
2022/04/17 04:32:28;;;;;;;;;;;;;;;-143.90;100.00;55262.13;2088037;28;20837;-64
2022/04/17 04:33:48;;;;;;;;;;;;;;;-143.90;100.00;55270.06;2088538;28;19991;-64
2022/04/17 04:35:09;;;;;;;;;;;;;;;-143.90;100.00;55266.09;2088441;28;20019;-63
2022/04/17 04:36:29;;;;;;;;;;;;;;;-143.90;100.00;55242.28;2087275;28;19925;-64
2022/04/17 04:37:50;;;;;;;;;;;;;;;-143.90;100.00;55238.31;2087993;28;19994;-64
2022/04/17 04:39:11;;;;;;;;;;;;;;;-143.90;100.00;55230.34;2088092;28;20787;-63
2022/04/17 04:40:32;;;;;;;;;;;;;;;-143.90;100.00;55246.25;2079299;28;19916;-63
2022/04/17 04:41:53;;;;;;;;;;;;;;;-143.90;100.00;55250.22;2085957;28;19960;-64
2022/04/17 04:43:13;;;;;;;;;;;;;;;-143.90;100.00;55254.19;2088073;28;19917;-63
2022/04/17 04:44:34;;;;;;;;;;;;;;;-143.90;100.00;55266.09;2088482;28;20632;-64
2022/04/17 04:46:07;;;;;;;;;;;;;;;-143.90;100.00;55258.16;2087794;28;19928;-64
2022/04/17 04:47:27;;;;;;;;;;;;;;;-143.90;100.00;55268.09;2088857;28;19912;-62
2022/04/17 04:50:27;;;;;;;;;;;;;;;-143.90;100.00;55266.09;2089181;28;19924;-64
2022/04/17 04:51:49;;;;;;;;;;;;;;;-143.90;100.00;55234.31;2088577;28;19916;-62
2022/04/17 04:53:10;;;;;;;;;;;;;;;-143.90;100.00;55244.25;2087765;28;19921;-64
2022/04/17 04:54:31;;;;;;;;;;;;;;;-143.90;100.00;55274.03;2087656;28;20376;-63
2022/04/17 04:55:54;;;;;;;;;;;;;;;-143.90;100.00;55250.22;2088188;28;19931;-63
2022/04/17 04:57:15;;;;;;;;;;;;;;;-143.90;100.00;55222.41;2087620;28;20377;-64
2022/04/17 04:58:36;;;;;;;;;;;;;;;-143.90;100.00;55198.59;2089045;28;19920;-61
2022/04/17 04:59:56;;;;;;;;;;;;;;;-143.90;100.00;55274.03;2089510;28;19924;-62
2022/04/17 05:01:17;;;;;;;;;;;;;;;-143.90;100.00;55246.25;2088372;28;20331;-63
2022/04/17 05:02:38;;;;;;;;;;;;;;;-143.90;100.00;55281.97;2087981;28;19921;-65
2022/04/17 05:03:58;;;;;;;;;;;;;;;-143.90;100.00;55220.44;2090135;28;19920;-64
2022/04/17 05:05:19;;;;;;;;;;;;;;;-143.90;100.00;55254.19;2090596;28;19916;-64
2022/04/17 05:06:40;;;;;;;;;;;;;;;-143.90;100.00;55216.47;2090700;28;19921;-62
2022/04/17 05:08:00;;;;;;;;;;;;;;;-143.90;100.00;55266.09;2090338;28;19921;-64
2022/04/17 05:09:21;;;;;;;;;;;;;;;-143.90;100.00;55226.38;2088781;28;19924;-64
2022/04/17 05:10:42;;;;;;;;;;;;;;;-143.90;100.00;55262.13;2089049;28;19916;-64
2022/04/17 05:12:03;;;;;;;;;;;;;;;-143.90;100.00;55246.25;2089846;28;20460;-63
2022/04/17 05:13:24;;;;;;;;;;;;;;;-143.90;100.00;55262.13;2080666;28;19917;-63
2022/04/17 05:14:45;;;;;;;;;;;;;;;-143.90;100.00;55256.16;2087043;28;19925;-64
2022/04/17 05:16:06;;;;;;;;;;;;;;;-143.90;100.00;55250.22;2090134;28;19987;-61
2022/04/17 05:17:27;;;;;;;;;;;;;;;-143.90;100.00;55218.44;2089080;28;19921;-63
2022/04/17 05:18:52;;;;;;;;;;;;;;;-143.90;100.00;55234.31;2089720;28;19963;-64
2022/04/17 05:20:15;;;;;;;;;;;;;;;-143.90;100.00;55242.28;2088636;28;19920;-64
2022/04/17 05:21:35;;;;;;;;;;;;;;;-143.90;100.00;55266.09;2089837;28;19979;-63
2022/04/17 05:23:03;;;;;;;;;;;;;;;-143.90;100.00;55266.09;2088724;28;19920;-64
2022/04/17 05:24:25;;;;;;;;;;;;;;;-143.90;100.00;55218.44;2090150;28;19921;-64
2022/04/17 05:25:48;;;;;;;;;;;;;;;-143.90;100.00;55254.19;2080528;28;19972;-64
2022/04/17 05:27:09;;;;;;;;;;;;;;;-143.90;100.00;55242.28;2088600;28;20339;-63
2022/04/17 05:28:30;;;;;;;;;;;;;;;-143.90;100.00;55238.31;2082265;28;19972;-63
2022/04/17 05:29:50;;;;;;;;;;;;;;;-143.90;100.00;55230.34;2081251;28;19921;-64
2022/04/17 05:31:11;;;;;;;;;;;;;;;-143.90;100.00;55264.13;2085620;28;19931;-63
2022/04/17 05:32:32;;;;;;;;;;;;;;;-143.90;100.00;55234.31;2089714;28;19917;-64
2022/04/17 05:33:52;;;;;;;;;;;;;;;-143.90;100.00;55216.47;2089691;28;19927;-64
2022/04/17 05:35:13;;;;;;;;;;;;;;;-143.90;100.00;55210.50;2088873;28;19917;-64
2022/04/17 05:36:34;;;;;;;;;;;;;;;-143.90;100.00;55212.50;2090067;28;19978;-66
2022/04/17 05:37:55;;;;;;;;;;;;;;;-143.90;100.00;55250.22;2091120;28;19916;-67
2022/04/17 05:39:15;;;;;;;;;;;;;;;-143.90;100.00;55234.31;2089729;28;19982;-65
2022/04/17 05:40:59;;;;;;;;;;;;;;;-143.90;100.00;55226.38;2088528;28;19985;-67
2022/04/17 05:42:20;;;;;;;;;;;;;;;-143.90;100.00;55230.34;2088456;28;20020;-66
2022/04/17 05:43:40;;;;;;;;;;;;;;;-143.90;100.00;55206.53;2088335;28;19921;-66
2022/04/17 05:45:02;;;;;;;;;;;;;;;-143.90;100.00;55206.53;2089273;28;19932;-67
2022/04/17 05:46:22;;;;;;;;;;;;;;;-143.90;100.00;55250.22;2089211;28;20102;-67
2022/04/17 05:47:43;;;;;;;;;;;;;;;-143.90;100.00;55194.63;2089433;28;19921;-67
2022/04/17 05:49:04;;;;;;;;;;;;;;;-143.90;98.55;55190.66;2089380;28;19927;-67
2022/04/17 05:50:25;;;;;;;;;;;;;;;-143.90;98.08;55214.47;2089377;28;19916;-67
2022/04/17 05:51:45;;;;;;;;;;;;;;;-143.90;98.39;55210.50;2088015;28;20275;-68
2022/04/17 05:53:06;;;;;;;;;;;;;;;-143.90;99.12;55186.69;2088910;28;19925;-66
2022/04/17 05:54:27;;;;;;;;;;;;;;;-143.90;99.39;55212.50;2090135;28;19920;-64
2022/04/17 05:55:47;;;;;;;;;;;;;;;-143.90;99.52;55198.59;2089288;28;20034;-65
2022/04/17 05:57:08;;;;;;;;;;;;;;;-143.90;100.00;55198.59;2080554;28;19921;-64
2022/04/17 05:58:29;;;;;;;;;;;;;;;-143.90;99.26;55214.47;2087186;28;19916;-64
2022/04/17 05:59:49;;;;;;;;;;;;;;;-143.90;100.00;55192.63;2089043;28;20021;-62
2022/04/17 06:01:11;;;;;;;;;;;;;;;-143.90;99.04;55196.59;2088418;28;19974;-65
2022/04/17 06:02:33;;;;;;;;;;;;;;;-143.90;96.40;55198.59;2090079;28;19935;-64
2022/04/17 06:03:54;;;;;;;;;;;;;;;-143.90;89.83;55115.19;2089767;28;19917;-64
2022/04/17 06:05:15;;;;;;;;;;;;;;;-143.90;86.40;55146.97;2088673;28;19930;-65
2022/04/17 06:06:36;;;;;;;;;;;;;;;-143.90;83.27;55182.69;2090755;27;19916;-65
2022/04/17 06:07:56;;;;;;;;;;;;;;;-143.90;79.97;55190.66;2088309;28;20015;-65
2022/04/17 06:09:17;;;;;;;;;;;;;;;-143.90;76.89;55198.59;2088913;28;19920;-64
2022/04/17 06:10:38;;;;;;;;;;;;;;;-143.90;75.21;55166.81;2090422;28;19920;-65
2022/04/17 06:11:58;;;;;;;;;;;;;;;-143.90;72.59;55162.84;2089724;28;19916;-65
2022/04/17 06:13:19;;;;;;;;;;;;;;;-143.90;69.66;55190.66;2088595;28;19921;-65
2022/04/17 06:14:39;;;;;;;;;;;;;;;-143.90;68.46;55119.16;2089426;28;19949;-64
2022/04/17 06:16:00;;;;;;;;;;;;;;;-143.90;67.19;55162.84;2088895;28;19921;-65
2022/04/17 06:17:21;;;;;;;;;;;;;;;-143.90;64.25;55135.03;2088980;28;19920;-64
2022/04/17 06:18:41;;;;;;;;;;;;;;;-143.90;63.54;55146.97;2088485;28;20496;-64
2022/04/17 06:20:06;;;;;;;;;;;;;;;-143.90;61.56;55158.88;2088964;28;19917;-67
2022/04/17 06:21:28;;;;;;;;;;;;;;;-143.90;60.39;55168.81;2089554;28;20442;-67
2022/04/17 06:22:49;;;;;;;;;;;;;;;-143.90;59.91;55150.94;2083537;28;19964;-67
2022/04/17 06:24:09;;;;;;;;;;;;;;;-143.90;58.97;55164.84;2089964;28;19921;-67
2022/04/17 06:25:30;;;;;;;;;;;;;;;-143.90;58.89;55154.91;2090040;28;19916;-66
2022/04/17 06:26:51;;;;;;;;;;;;;;;-143.90;59.17;55182.69;2089333;28;19925;-67
2022/04/17 06:28:12;;;;;;;;;;;;;;;-143.90;58.39;55162.84;2090668;28;20003;-66
2022/04/17 06:29:32;;;;;;;;;;;;;;;-143.90;58.02;55146.97;2087593;28;19920;-66
2022/04/17 06:30:53;;;;;;;;;;;;;;;-143.90;57.82;55160.84;2087602;28;19916;-67
2022/04/17 06:32:14;;;;;;;;;;;;;;;-143.90;58.83;55152.91;2089205;28;19927;-67
2022/04/17 06:33:34;;;;;;;;;;;;;;;-143.90;58.44;55135.03;2088068;28;19917;-67
2022/04/17 06:34:56;;;;;;;;;;;;;;;-143.90;58.59;55148.94;2090476;28;19989;-66
2022/04/17 06:36:16;;;;;;;;;;;;;;;-143.90;57.95;55123.13;2088121;28;19917;-66
2022/04/17 06:37:47;;;;;;;;;;;;;;;-143.90;57.32;55168.81;2087979;28;19921;-67
2022/04/17 06:39:07;;;;;;;;;;;;;;;-143.90;58.42;55111.22;2088294;28;20249;-66
2022/04/17 06:40:33;;;;;;;;;;;;;;;-143.90;57.34;55166.81;2088375;28;19921;-66
2022/04/17 06:41:54;;;;;;;;;;;;;;;-143.90;57.67;55127.09;2088421;28;20410;-66
2022/04/17 06:43:19;;;;;;;;;;;;;;;-143.90;57.06;55162.84;2080354;28;19921;-66
2022/04/17 06:44:40;;;;;;;;;;;;;;;-143.90;56.50;55119.16;2084495;28;20447;-65
2022/04/17 06:46:00;;;;;;;;;;;;;;;-143.90;56.15;55119.16;2089359;28;19920;-67
2022/04/17 06:47:21;;;;;;;;;;;;;;;-143.90;56.36;55135.03;2079287;28;20650;-67
2022/04/17 06:48:41;;;;;;;;;;;;;;;-143.90;56.42;55119.16;2085245;28;19939;-67
2022/04/17 06:50:02;;;;;;;;;;;;;;;-143.90;56.02;55152.91;2088410;28;19921;-67
2022/04/17 06:51:25;;;;;;;;;;;;;;;-143.90;56.78;55146.97;2088495;28;19924;-67
2022/04/17 06:52:46;;;;;;;;;;;;;;;-143.90;56.53;55117.19;2089130;28;19967;-67
2022/04/17 06:54:08;;;;;;;;;;;;;;;-143.90;55.50;55125.13;2090331;28;19921;-67
2022/04/17 06:55:29;;;;;;;;;;;;;;;-143.90;55.02;55121.16;2080407;28;19921;-67
2022/04/17 06:56:50;;;;;;;;;;;;;;;-143.90;54.28;55131.06;2083206;28;20030;-66
2022/04/17 06:58:10;;;;;;;;;;;;;;;-143.90;53.51;55111.22;2087975;28;19916;-66
2022/04/17 06:59:31;;;;;;;;;;;;;;;-143.90;52.43;55089.38;2088294;28;19951;-66
2022/04/17 07:00:52;;;;;;;;;;;;;;;-143.90;52.21;55156.88;2089547;28;19923;-66
2022/04/17 07:02:12;;;;;;;;;;;;;;;-143.90;51.81;55137.03;2088510;28;20480;-66
2022/04/17 07:03:33;;;;;;;;;;;;;;;-143.90;53.10;55111.22;2087806;28;19917;-66